Time;durP1;ratioP1;P1;durP2;ratioP2;P2;SDS_P1;SDS_P2;PMS_P1;PMS_P2;Temp;Humidity;BMP_temperature;BMP_pressure;BME280_temperature;BME280_humidity;BME280_pressure;Samples;Min_cycle;Max_cycle;Signal;HPM_P1;HPM_P2
2021/10/15 00:01:08;;;;;;;13.25;4.32;;;13.60;99.90;;;;;;5019489;28;20111;-64
2021/10/15 00:03:33;;;;;;;8.80;3.20;;;13.60;99.90;;;;;;5020510;28;20026;-63
2021/10/15 00:05:59;;;;;;;8.88;3.80;;;13.60;99.90;;;;;;5022624;28;20133;-62
2021/10/15 00:08:24;;;;;;;10.18;4.28;;;13.60;99.90;;;;;;5019143;28;20034;-63
2021/10/15 00:10:50;;;;;;;9.25;4.50;;;13.60;99.90;;;;;;5020197;28;20497;-62
2021/10/15 00:13:16;;;;;;;7.25;3.70;;;13.60;99.90;;;;;;5020048;28;20034;-62
2021/10/15 00:15:41;;;;;;;10.65;3.67;;;13.60;99.90;;;;;;5023289;28;20049;-62
2021/10/15 00:18:07;;;;;;;7.65;3.75;;;13.60;99.90;;;;;;5020720;28;20033;-64
2021/10/15 00:20:32;;;;;;;8.15;3.28;;;13.60;99.90;;;;;;5023040;28;20042;-63
2021/10/15 00:22:58;;;;;;;8.30;3.75;;;13.50;99.90;;;;;;5021785;28;20033;-64
2021/10/15 00:25:24;;;;;;;8.77;3.83;;;13.50;99.90;;;;;;5019080;28;20091;-62
2021/10/15 00:27:49;;;;;;;10.60;3.78;;;13.60;99.90;;;;;;5026014;28;20026;-63
2021/10/15 00:30:15;;;;;;;12.93;3.28;;;13.60;99.90;;;;;;5019113;28;20375;-63
2021/10/15 00:32:40;;;;;;;8.43;4.05;;;13.60;99.90;;;;;;5021086;28;20062;-63
2021/10/15 00:35:06;;;;;;;9.57;3.50;;;13.50;99.90;;;;;;5002644;28;20037;-63
2021/10/15 00:37:32;;;;;;;10.57;3.72;;;13.50;99.90;;;;;;5020378;28;20072;-63
2021/10/15 00:39:58;;;;;;;9.35;3.72;;;13.50;99.90;;;;;;5021135;28;20060;-63
2021/10/15 00:42:24;;;;;;;9.00;3.30;;;13.50;99.90;;;;;;5019042;28;20445;-64
2021/10/15 00:44:49;;;;;;;7.45;3.70;;;13.50;99.90;;;;;;5021794;28;20033;-64
2021/10/15 00:47:15;;;;;;;7.38;3.80;;;13.50;99.90;;;;;;5018987;28;20026;-62
2021/10/15 00:49:40;;;;;;;6.47;3.63;;;13.50;99.90;;;;;;5021726;28;20493;-64
2021/10/15 00:52:09;;;;;;;10.50;3.60;;;13.50;99.90;;;;;;5018937;28;20041;-62
2021/10/15 00:54:35;;;;;;;7.35;3.88;;;13.50;99.90;;;;;;5020878;28;20036;-63
2021/10/15 00:57:01;;;;;;;8.57;3.50;;;13.40;99.90;;;;;;5019880;28;20457;-62
2021/10/15 00:59:27;;;;;;;6.28;3.17;;;13.50;99.90;;;;;;5021154;28;20037;-62
2021/10/15 01:01:53;;;;;;;7.55;3.45;;;13.50;99.90;;;;;;5021348;28;20042;-62
2021/10/15 01:04:19;;;;;;;12.05;4.13;;;13.40;99.90;;;;;;5018106;28;20516;-62
2021/10/15 01:06:44;;;;;;;8.88;3.63;;;13.40;99.90;;;;;;5018431;28;20038;-62
2021/10/15 01:09:10;;;;;;;7.32;3.63;;;13.40;99.90;;;;;;5020655;28;20052;-64
2021/10/15 01:11:36;;;;;;;9.70;4.18;;;13.40;99.90;;;;;;5021395;28;20046;-65
2021/10/15 01:14:03;;;;;;;8.80;3.58;;;13.50;99.90;;;;;;5021188;28;20033;-64
2021/10/15 01:16:31;;;;;;;8.45;3.80;;;13.50;99.90;;;;;;5023503;28;20057;-62
2021/10/15 01:18:59;;;;;;;13.35;4.18;;;13.40;99.90;;;;;;5020164;28;20053;-65
2021/10/15 01:21:25;;;;;;;13.60;3.47;;;13.40;99.90;;;;;;5018383;28;20040;-62
2021/10/15 01:23:51;;;;;;;7.93;3.30;;;13.40;99.90;;;;;;5021443;28;20124;-62
2021/10/15 01:26:17;;;;;;;9.13;3.67;;;13.50;99.90;;;;;;5017963;28;20570;-63
2021/10/15 01:28:43;;;;;;;8.27;3.40;;;13.50;99.90;;;;;;5020737;28;20038;-63
2021/10/15 01:31:08;;;;;;;12.05;3.60;;;13.50;99.90;;;;;;5021152;28;20040;-64
2021/10/15 01:33:35;;;;;;;9.00;3.75;;;13.40;99.90;;;;;;5019271;28;20029;-64
2021/10/15 01:36:01;;;;;;;12.05;4.03;;;13.40;99.90;;;;;;5019323;28;20030;-62
2021/10/15 01:38:27;;;;;;;11.98;4.00;;;13.40;99.90;;;;;;5020118;28;20033;-63
2021/10/15 01:40:53;;;;;;;9.02;3.75;;;13.50;99.90;;;;;;5018215;28;20091;-64
2021/10/15 01:43:28;;;;;;;9.82;3.80;;;13.50;99.90;;;;;;5021513;28;20045;-64
2021/10/15 01:45:55;;;;;;;7.97;3.70;;;13.50;99.90;;;;;;5018512;28;20117;-64
2021/10/15 01:48:22;;;;;;;13.60;4.00;;;13.50;99.90;;;;;;5020465;28;20372;-62
2021/10/15 01:50:48;;;;;;;9.13;3.97;;;13.40;99.90;;;;;;5017087;28;20034;-63
2021/10/15 01:53:14;;;;;;;12.45;4.28;;;13.40;99.90;;;;;;5020842;28;20124;-63
2021/10/15 01:55:39;;;;;;;9.50;3.88;;;13.40;99.90;;;;;;5019246;28;20042;-64
2021/10/15 01:58:05;;;;;;;9.90;3.40;;;13.50;99.90;;;;;;5019363;28;20116;-63
2021/10/15 02:00:31;;;;;;;10.18;3.95;;;13.50;99.90;;;;;;5021693;28;20038;-62
2021/10/15 02:02:56;;;;;;;9.77;3.88;;;13.50;99.90;;;;;;5018405;28;20045;-62
2021/10/15 02:05:22;;;;;;;9.10;3.72;;;13.50;99.90;;;;;;5021280;28;20112;-64
2021/10/15 02:07:48;;;;;;;6.25;3.53;;;13.50;99.90;;;;;;5017277;28;20543;-62
2021/10/15 02:10:15;;;;;;;8.98;4.07;;;13.50;99.90;;;;;;5020322;28;20106;-63
2021/10/15 02:12:41;;;;;;;10.40;3.45;;;13.50;99.90;;;;;;5017765;28;20053;-62
2021/10/15 02:15:09;;;;;;;8.43;3.53;;;13.50;99.90;;;;;;5019964;28;20037;-62
2021/10/15 02:17:35;;;;;;;9.68;3.30;;;13.50;99.90;;;;;;5017571;28;20395;-64
2021/10/15 02:20:04;;;;;;;14.25;4.13;;;13.50;99.90;;;;;;5018677;28;20037;-63
2021/10/15 02:22:29;;;;;;;6.78;2.75;;;13.50;99.90;;;;;;5018623;28;20478;-64
2021/10/15 02:24:55;;;;;;;8.27;3.47;;;13.50;99.90;;;;;;5018308;28;20043;-63
2021/10/15 02:27:20;;;;;;;6.53;3.35;;;13.50;99.90;;;;;;5018654;28;20553;-62
2021/10/15 02:29:46;;;;;;;8.05;3.35;;;13.50;99.90;;;;;;5020014;28;20633;-63
2021/10/15 02:32:11;;;;;;;11.38;3.53;;;13.50;99.90;;;;;;5016045;28;20033;-62
2021/10/15 02:34:37;;;;;;;8.00;3.63;;;13.50;99.90;;;;;;5020565;28;20033;-63
2021/10/15 02:37:03;;;;;;;9.68;4.05;;;13.50;99.90;;;;;;5019176;28;20041;-62
2021/10/15 02:39:28;;;;;;;8.88;3.50;;;13.50;99.90;;;;;;5018180;28;20116;-62
2021/10/15 02:41:54;;;;;;;7.95;3.42;;;13.50;99.90;;;;;;5017851;28;20034;-64
2021/10/15 02:44:19;;;;;;;7.25;3.30;;;13.40;99.90;;;;;;5019640;28;20037;-63
2021/10/15 02:46:45;;;;;;;19.25;3.78;;;13.40;99.90;;;;;;5016151;28;20104;-63
2021/10/15 02:49:11;;;;;;;6.25;3.47;;;13.40;99.90;;;;;;5019202;28;20039;-63
2021/10/15 02:51:36;;;;;;;8.05;3.20;;;13.50;99.90;;;;;;5015681;28;20117;-62
2021/10/15 02:54:03;;;;;;;9.10;3.80;;;13.50;99.90;;;;;;5021944;28;20535;-62
2021/10/15 02:56:29;;;;;;;14.02;3.92;;;13.50;99.90;;;;;;5017735;28;20033;-63
2021/10/15 02:58:55;;;;;;;9.75;3.05;;;13.50;99.90;;;;;;5017616;28;20041;-62
2021/10/15 03:01:21;;;;;;;10.38;3.70;;;13.50;99.90;;;;;;5018628;28;20041;-63
2021/10/15 03:03:48;;;;;;;8.07;3.42;;;13.50;99.90;;;;;;5016937;28;20469;-63
2021/10/15 03:06:14;;;;;;;9.85;4.25;;;13.50;99.90;;;;;;5019796;28;20030;-63
2021/10/15 03:08:39;;;;;;;12.68;4.38;;;13.40;99.90;;;;;;5019116;28;20030;-64
2021/10/15 03:11:05;;;;;;;11.18;3.05;;;13.50;99.90;;;;;;5019843;28;20117;-64
2021/10/15 03:13:31;;;;;;;17.67;4.03;;;13.50;99.90;;;;;;5026597;28;20045;-62
2021/10/15 03:15:56;;;;;;;7.60;3.45;;;13.50;99.90;;;;;;5033292;28;20029;-64
2021/10/15 03:18:22;;;;;;;10.43;3.10;;;13.50;99.90;;;;;;5026235;28;20045;-62
2021/10/15 03:20:48;;;;;;;12.85;3.75;;;13.40;99.90;;;;;;5027354;28;20037;-62
2021/10/15 03:23:13;;;;;;;8.98;3.60;;;13.50;99.90;;;;;;5032003;28;20030;-62
2021/10/15 03:25:39;;;;;;;10.75;4.45;;;13.50;99.90;;;;;;5029407;28;20033;-63
2021/10/15 03:28:05;;;;;;;11.02;3.45;;;13.50;99.90;;;;;;5022489;28;20124;-62
2021/10/15 03:30:31;;;;;;;13.98;3.85;;;13.50;99.90;;;;;;5026303;28;20025;-62
2021/10/15 03:32:57;;;;;;;17.35;3.92;;;13.50;99.90;;;;;;5028814;28;20044;-64
2021/10/15 03:35:22;;;;;;;10.82;4.13;;;13.60;99.90;;;;;;5022947;28;20083;-63
2021/10/15 03:37:48;;;;;;;8.10;3.67;;;13.60;99.90;;;;;;5031553;28;20042;-63
2021/10/15 03:40:14;;;;;;;8.60;3.38;;;13.60;99.90;;;;;;5029819;28;20093;-63
2021/10/15 03:42:40;;;;;;;12.93;4.55;;;13.60;99.90;;;;;;5015988;28;20042;-64
2021/10/15 03:45:07;;;;;;;7.65;3.17;;;13.60;99.90;;;;;;5018903;28;20645;-63
2021/10/15 03:47:34;;;;;;;16.30;4.20;;;13.60;99.90;;;;;;4997797;28;20401;-64
2021/10/15 03:50:00;;;;;;;11.82;4.43;;;13.60;99.90;;;;;;5016770;28;20029;-64
2021/10/15 03:52:26;;;;;;;10.07;4.03;;;13.60;99.90;;;;;;5019804;28;20045;-63
2021/10/15 03:54:53;;;;;;;19.38;4.03;;;13.60;99.90;;;;;;5017959;28;20695;-62
2021/10/15 03:57:18;;;;;;;8.60;3.72;;;13.60;99.90;;;;;;5018232;28;20155;-64
2021/10/15 03:59:44;;;;;;;12.57;4.03;;;13.60;99.90;;;;;;5015837;28;20117;-64
2021/10/15 04:02:09;;;;;;;11.63;3.72;;;13.60;99.90;;;;;;5019122;28;20059;-64
2021/10/15 04:04:35;;;;;;;9.45;3.47;;;13.70;99.90;;;;;;5015995;28;20029;-64
2021/10/15 04:07:00;;;;;;;10.45;3.72;;;13.60;99.90;;;;;;5001190;28;20044;-63
2021/10/15 04:09:26;;;;;;;10.60;3.70;;;13.70;99.90;;;;;;5016558;28;20075;-61
2021/10/15 04:11:52;;;;;;;10.70;4.13;;;13.60;99.90;;;;;;5018179;28;20034;-64
2021/10/15 04:14:17;;;;;;;6.63;3.22;;;13.60;99.90;;;;;;5019669;28;20400;-63
2021/10/15 04:16:43;;;;;;;11.77;4.43;;;13.60;99.90;;;;;;5017929;28;20501;-63
2021/10/15 04:19:09;;;;;;;11.55;3.70;;;13.60;99.90;;;;;;5018831;28;20131;-63
2021/10/15 04:21:35;;;;;;;7.18;3.80;;;13.50;99.90;;;;;;5015867;28;20587;-63
2021/10/15 04:24:00;;;;;;;10.35;3.97;;;13.50;99.90;;;;;;5018862;28;20183;-64
2021/10/15 04:26:26;;;;;;;9.98;3.92;;;13.60;99.90;;;;;;5017323;28;20034;-62
2021/10/15 04:28:52;;;;;;;9.18;4.28;;;13.60;99.90;;;;;;5020158;28;20116;-64
2021/10/15 04:31:17;;;;;;;13.20;3.50;;;13.60;99.90;;;;;;5020014;28;20041;-63
2021/10/15 04:33:43;;;;;;;9.48;3.75;;;13.50;99.90;;;;;;5021837;28;20388;-63
2021/10/15 04:36:09;;;;;;;6.63;3.70;;;13.60;99.90;;;;;;5019000;28;20040;-63
2021/10/15 04:38:34;;;;;;;10.93;4.03;;;13.50;99.90;;;;;;5022041;28;20044;-64
2021/10/15 04:41:00;;;;;;;8.13;3.90;;;13.50;99.90;;;;;;5022487;28;20397;-64
2021/10/15 04:43:26;;;;;;;9.30;3.78;;;13.60;99.90;;;;;;5001578;28;20494;-62
2021/10/15 04:45:51;;;;;;;8.10;3.97;;;13.60;99.90;;;;;;5019773;28;20041;-63
2021/10/15 04:48:17;;;;;;;12.25;5.05;;;13.60;99.90;;;;;;5022350;28;20038;-64
2021/10/15 04:50:43;;;;;;;14.27;4.18;;;13.50;99.90;;;;;;5019154;28;20077;-63
2021/10/15 04:53:08;;;;;;;10.07;4.22;;;13.60;99.90;;;;;;5022555;28;20029;-62
2021/10/15 04:55:35;;;;;;;9.90;4.18;;;13.60;99.90;;;;;;5001591;28;20034;-63
2021/10/15 04:58:01;;;;;;;8.00;3.95;;;13.60;99.90;;;;;;5021546;28;20121;-64
2021/10/15 05:00:28;;;;;;;11.77;4.30;;;13.50;99.90;;;;;;5019194;28;20033;-62
2021/10/15 05:02:54;;;;;;;11.98;3.92;;;13.50;99.90;;;;;;5020943;28;20061;-63
2021/10/15 05:05:23;;;;;;;11.85;4.20;;;13.60;99.90;;;;;;5020043;28;20371;-62
2021/10/15 05:07:48;;;;;;;11.35;3.78;;;13.50;99.90;;;;;;5020247;28;20048;-62
2021/10/15 05:10:15;;;;;;;9.65;3.13;;;13.60;99.90;;;;;;5020634;28;20424;-62
2021/10/15 05:12:41;;;;;;;11.82;3.88;;;13.50;99.90;;;;;;5019337;28;20461;-63
2021/10/15 05:15:08;;;;;;;7.00;3.53;;;13.50;99.90;;;;;;5025544;28;20029;-63
2021/10/15 05:17:35;;;;;;;11.50;3.45;;;13.50;99.90;;;;;;5025632;28;20045;-64
2021/10/15 05:20:01;;;;;;;15.80;4.30;;;13.50;99.90;;;;;;5028892;28;20045;-63
2021/10/15 05:22:27;;;;;;;10.48;3.13;;;13.50;99.90;;;;;;5024205;28;20523;-64
2021/10/15 05:24:53;;;;;;;6.38;2.67;;;13.50;99.90;;;;;;5021355;28;20045;-64
2021/10/15 05:27:18;;;;;;;8.68;3.10;;;13.50;99.90;;;;;;5021707;28;20056;-63
2021/10/15 05:29:47;;;;;;;8.52;2.60;;;13.50;99.90;;;;;;5021574;28;20034;-63
2021/10/15 05:32:14;;;;;;;12.48;2.45;;;13.60;99.90;;;;;;5018953;28;20121;-63
2021/10/15 05:34:40;;;;;;;9.00;3.35;;;13.60;99.90;;;;;;5020519;28;20029;-64
2021/10/15 05:37:05;;;;;;;11.50;1.73;;;13.70;99.90;;;;;;5017915;28;20721;-64
2021/10/15 05:39:31;;;;;;;5.25;1.27;;;13.70;99.90;;;;;;5021056;28;20062;-62
2021/10/15 05:41:56;;;;;;;3.80;1.20;;;13.70;99.90;;;;;;5021983;28;20033;-62
2021/10/15 05:44:22;;;;;;;9.15;1.73;;;13.80;99.90;;;;;;5018581;28;20033;-63
2021/10/15 05:46:47;;;;;;;6.22;1.48;;;13.90;99.90;;;;;;5019659;28;20486;-61
2021/10/15 05:49:13;;;;;;;6.30;1.58;;;13.90;99.90;;;;;;5020186;28;20037;-62
2021/10/15 05:51:42;;;;;;;6.03;1.73;;;13.90;99.90;;;;;;5018286;28;20091;-62
2021/10/15 05:54:11;;;;;;;10.55;1.77;;;13.90;99.90;;;;;;5016797;28;20029;-62
2021/10/15 05:59:05;;;;;;;9.40;1.73;;;13.70;99.90;;;;;;5021072;28;20108;-64
2021/10/15 06:01:32;;;;;;;4.20;1.30;;;13.60;99.90;;;;;;5018860;28;20129;-63
2021/10/15 06:14:44;;;;;;;6.03;1.50;;;13.40;99.90;;;;;;5018339;28;20095;-63
2021/10/15 06:17:17;;;;;;;5.60;1.20;;;13.40;99.90;;;;;;5019272;28;20120;-65
2021/10/15 06:20:03;;;;;;;3.75;1.20;;;13.30;99.90;;;;;;5017919;28;20037;-62
2021/10/15 06:22:29;;;;;;;2.67;0.88;;;13.30;99.90;;;;;;5020335;28;20068;-62
2021/10/15 06:24:56;;;;;;;2.55;0.60;;;13.30;99.90;;;;;;4999452;28;20075;-63
2021/10/15 06:27:24;;;;;;;3.20;0.57;;;13.30;99.90;;;;;;5020319;28;20401;-62
2021/10/15 06:29:50;;;;;;;1.77;0.50;;;13.10;99.90;;;;;;4999597;28;20851;-62
2021/10/15 06:32:16;;;;;;;1.95;0.17;;;13.00;99.90;;;;;;5016983;28;20033;-64
2021/10/15 06:34:42;;;;;;;1.63;0.10;;;12.80;99.90;;;;;;5020517;28;20088;-62
2021/10/15 06:37:07;;;;;;;0.32;0.10;;;12.70;99.90;;;;;;5021006;28;20402;-63
2021/10/15 06:39:33;;;;;;;3.72;0.30;;;12.60;99.90;;;;;;4999333;28;20042;-63
2021/10/15 06:41:59;;;;;;;3.25;0.57;;;12.50;99.90;;;;;;5019904;28;20528;-62
2021/10/15 06:44:24;;;;;;;0.17;0.10;;;12.40;99.90;;;;;;5016727;28;20099;-63
2021/10/15 06:46:52;;;;;;;3.00;0.20;;;12.30;99.90;;;;;;5019118;28;20052;-63
2021/10/15 06:49:18;;;;;;;3.60;0.20;;;12.30;99.90;;;;;;4998912;28;20040;-62
2021/10/15 06:51:43;;;;;;;0.95;0.10;;;12.20;99.90;;;;;;5018029;28;20038;-63
2021/10/15 06:54:09;;;;;;;1.25;0.30;;;12.10;99.90;;;;;;5016581;28;20567;-63
2021/10/15 06:56:35;;;;;;;1.30;0.38;;;12.00;99.90;;;;;;5019104;28;20051;-65
2021/10/15 06:59:00;;;;;;;0.98;0.13;;;12.00;99.90;;;;;;5016462;28;20030;-64
2021/10/15 07:01:26;;;;;;;1.80;0.50;;;11.90;99.90;;;;;;5002612;28;20475;-62
2021/10/15 07:03:51;;;;;;;0.75;0.30;;;11.80;99.90;;;;;;5023235;28;20034;-64
2021/10/15 07:06:17;;;;;;;0.20;0.08;;;11.70;99.90;;;;;;5017539;28;20031;-62
2021/10/15 07:08:42;;;;;;;1.25;0.20;;;11.70;99.90;;;;;;5017746;28;20383;-63
2021/10/15 07:11:08;;;;;;;0.80;0.10;;;11.70;99.90;;;;;;5021119;28;20044;-64
2021/10/15 07:13:34;;;;;;;2.90;0.20;;;11.60;99.90;;;;;;5003448;28;20033;-63
2021/10/15 07:15:59;;;;;;;2.65;0.17;;;11.70;99.90;;;;;;5019671;28;20029;-64
2021/10/15 07:18:25;;;;;;;1.05;0.10;;;11.60;99.90;;;;;;5016054;28;20454;-62
2021/10/15 07:20:50;;;;;;;3.53;0.35;;;11.60;99.90;;;;;;5018881;28;20034;-62
2021/10/15 07:23:16;;;;;;;2.90;0.35;;;11.60;99.90;;;;;;5017303;28;20029;-63
2021/10/15 07:25:43;;;;;;;1.55;0.20;;;11.60;99.90;;;;;;5000135;28;20133;-62
2021/10/15 07:28:09;;;;;;;2.60;0.40;;;11.60;99.90;;;;;;5022702;28;20774;-62
2021/10/15 07:30:35;;;;;;;2.55;0.38;;;11.70;99.90;;;;;;5018524;28;20499;-67
2021/10/15 07:33:00;;;;;;;3.97;0.40;;;11.80;99.90;;;;;;5016630;28;20050;-62
2021/10/15 07:35:26;;;;;;;1.70;0.20;;;11.80;99.90;;;;;;5019656;28;20087;-62
2021/10/15 07:37:52;;;;;;;2.67;0.32;;;11.80;99.90;;;;;;5016323;28;20030;-64
2021/10/15 07:40:17;;;;;;;2.88;0.40;;;11.80;99.90;;;;;;5018137;28;20061;-64
2021/10/15 07:42:43;;;;;;;3.20;0.40;;;11.90;99.90;;;;;;5016652;28;20887;-63
2021/10/15 07:45:09;;;;;;;8.45;2.05;;;11.90;99.90;;;;;;5020180;28;20505;-63
2021/10/15 07:47:35;;;;;;;5.60;0.50;;;11.90;99.90;;;;;;5017210;28;20030;-63
2021/10/15 07:50:00;;;;;;;4.63;0.70;;;11.90;99.90;;;;;;5018671;28;20413;-62
2021/10/15 07:52:26;;;;;;;6.45;0.80;;;11.90;99.90;;;;;;5015752;28;20029;-62
2021/10/15 07:54:52;;;;;;;2.10;0.30;;;11.90;99.90;;;;;;5016900;28;20029;-63
2021/10/15 07:57:17;;;;;;;3.88;0.50;;;12.00;99.90;;;;;;5018418;28;20052;-62
2021/10/15 07:59:43;;;;;;;7.60;0.65;;;12.10;99.90;;;;;;5016855;28;20524;-63
2021/10/15 08:02:09;;;;;;;8.68;0.80;;;12.10;99.90;;;;;;5021901;28;20034;-61
2021/10/15 08:04:35;;;;;;;4.53;0.70;;;12.10;99.90;;;;;;5005029;28;20482;-66
2021/10/15 08:07:02;;;;;;;3.90;0.25;;;12.20;99.90;;;;;;5022815;28;20069;-63
2021/10/15 08:09:27;;;;;;;3.80;0.47;;;12.20;99.90;;;;;;5023517;28;20033;-62
2021/10/15 08:11:53;;;;;;;2.00;0.73;;;12.20;99.90;;;;;;5012230;28;20044;-63
2021/10/15 08:14:20;;;;;;;3.33;0.70;;;12.30;99.90;;;;;;5020765;28;20225;-64
2021/10/15 08:16:46;;;;;;;6.75;0.38;;;12.30;99.90;;;;;;5018885;28;20029;-63
2021/10/15 08:19:12;;;;;;;5.00;0.70;;;12.20;99.90;;;;;;5020324;28;20384;-61
2021/10/15 08:21:37;;;;;;;3.85;0.80;;;12.30;99.90;;;;;;5021753;28;20501;-62
2021/10/15 08:24:03;;;;;;;2.30;0.50;;;12.30;99.90;;;;;;5019874;28;20034;-62
2021/10/15 08:26:29;;;;;;;4.53;0.50;;;12.30;99.90;;;;;;5016065;28;20723;-62
2021/10/15 08:28:59;;;;;;;3.58;0.77;;;12.30;99.90;;;;;;5019854;28;20047;-64
2021/10/15 08:31:26;;;;;;;1.13;0.38;;;12.30;99.90;;;;;;5020347;28;20393;-63
2021/10/15 08:33:52;;;;;;;4.13;1.02;;;12.40;99.90;;;;;;5026342;28;20563;-62
2021/10/15 08:36:19;;;;;;;7.47;0.93;;;12.40;99.90;;;;;;5028721;28;20061;-62
2021/10/15 08:38:44;;;;;;;6.88;0.73;;;12.40;99.90;;;;;;5025843;28;20037;-62
2021/10/15 08:41:11;;;;;;;6.05;0.60;;;12.30;99.90;;;;;;5033406;28;20041;-62
2021/10/15 08:43:39;;;;;;;5.25;0.65;;;12.30;99.90;;;;;;5025389;28;20036;-63
2021/10/15 08:46:06;;;;;;;9.98;1.48;;;12.40;99.90;;;;;;5023600;28;20101;-62
2021/10/15 08:48:38;;;;;;;4.05;0.73;;;12.40;99.90;;;;;;5021540;28;20018;-62
2021/10/15 08:51:05;;;;;;;6.03;1.05;;;12.40;99.90;;;;;;5011112;28;20033;-62
2021/10/15 08:53:30;;;;;;;2.30;0.50;;;12.50;99.90;;;;;;5016223;28;20029;-62
2021/10/15 08:55:56;;;;;;;6.80;0.85;;;12.50;99.90;;;;;;5015501;28;20082;-61
2021/10/15 08:58:40;;;;;;;2.25;0.40;;;12.70;99.90;;;;;;5017701;28;20025;-63
2021/10/15 09:01:06;;;;;;;5.13;0.77;;;12.90;99.90;;;;;;5016578;28;20612;-62
2021/10/15 09:03:32;;;;;;;7.90;0.52;;;13.00;99.90;;;;;;5017696;28;20116;-63
2021/10/15 09:06:00;;;;;;;5.93;0.57;;;13.10;99.90;;;;;;5017765;28;20035;-62
2021/10/15 09:08:42;;;;;;;3.65;0.70;;;13.10;99.90;;;;;;5002980;28;20053;-61
2021/10/15 09:11:23;;;;;;;4.80;0.85;;;13.10;99.90;;;;;;5031879;28;20030;-62
2021/10/15 09:13:49;;;;;;;11.13;0.85;;;13.10;99.90;;;;;;5029799;28;20068;-62
2021/10/15 09:16:15;;;;;;;7.68;0.70;;;13.00;99.90;;;;;;5028291;28;20120;-63
2021/10/15 09:18:44;;;;;;;4.25;0.70;;;13.00;99.90;;;;;;5024763;28;20163;-63
2021/10/15 09:21:17;;;;;;;5.20;0.90;;;12.90;99.90;;;;;;5012096;28;20431;-62
2021/10/15 09:23:48;;;;;;;11.85;1.38;;;13.00;99.90;;;;;;5020314;28;20168;-62
2021/10/15 09:26:16;;;;;;;5.88;0.60;;;13.00;99.90;;;;;;5019421;28;20030;-62
2021/10/15 09:28:44;;;;;;;8.80;0.90;;;13.10;99.90;;;;;;5015870;28;20048;-63
2021/10/15 09:31:11;;;;;;;7.00;0.70;;;13.20;99.90;;;;;;5020471;28;20037;-64
2021/10/15 09:33:37;;;;;;;6.05;1.02;;;13.30;99.90;;;;;;5020189;28;20033;-63
2021/10/15 09:36:05;;;;;;;8.85;1.38;;;13.30;99.90;;;;;;5019985;28;20094;-63
2021/10/15 09:38:31;;;;;;;10.38;0.93;;;13.30;99.90;;;;;;5019047;28;20040;-63
2021/10/15 09:40:57;;;;;;;6.03;1.00;;;13.40;99.90;;;;;;5020713;28;20650;-62
2021/10/15 09:43:35;;;;;;;8.82;0.52;;;13.40;99.90;;;;;;5017994;28;20030;-62
2021/10/15 09:46:01;;;;;;;5.10;0.50;;;13.40;99.90;;;;;;5020078;28;20095;-63
2021/10/15 09:48:35;;;;;;;6.90;0.65;;;13.50;99.90;;;;;;5018602;28;20056;-62
2021/10/15 09:51:19;;;;;;;6.45;0.40;;;13.50;99.90;;;;;;5019485;28;20400;-62
2021/10/15 09:54:06;;;;;;;3.92;0.73;;;13.60;99.90;;;;;;5018616;28;20044;-62
2021/10/15 09:56:51;;;;;;;4.00;1.17;;;13.50;99.90;;;;;;5019117;28;20037;-63
2021/10/15 09:59:17;;;;;;;6.68;1.10;;;13.60;99.90;;;;;;5003878;28;20658;-64
2021/10/15 10:01:43;;;;;;;6.32;0.57;;;13.70;99.90;;;;;;5022134;28;20100;-63
2021/10/15 10:04:11;;;;;;;9.23;0.90;;;13.80;99.90;;;;;;5018252;28;20037;-62
2021/10/15 10:06:37;;;;;;;6.65;0.75;;;14.00;99.90;;;;;;5019211;28;20068;-62
2021/10/15 10:09:04;;;;;;;6.55;0.70;;;14.10;99.90;;;;;;5019162;28;20033;-64
2021/10/15 10:11:31;;;;;;;8.32;0.93;;;14.10;99.90;;;;;;5018465;28;20033;-63
2021/10/15 10:13:57;;;;;;;1.60;0.30;;;14.10;99.90;;;;;;5018836;28;20466;-61
2021/10/15 10:16:24;;;;;;;2.88;0.80;;;14.00;99.90;;;;;;5018063;28;20092;-63
2021/10/15 10:18:52;;;;;;;12.77;1.15;;;13.90;99.90;;;;;;5019393;28;20072;-64
2021/10/15 10:21:24;;;;;;;3.83;0.43;;;13.70;99.90;;;;;;5016184;28;20042;-62
2021/10/15 10:23:59;;;;;;;11.48;1.05;;;13.80;99.90;;;;;;5015346;28;20066;-62
2021/10/15 10:26:25;;;;;;;5.20;0.43;;;13.90;99.90;;;;;;5017817;28;20037;-63
2021/10/15 10:28:59;;;;;;;9.95;0.73;;;14.00;99.90;;;;;;5019616;28;20079;-63
2021/10/15 10:31:24;;;;;;;5.25;0.98;;;14.00;99.90;;;;;;5017968;28;20080;-63
2021/10/15 10:34:01;;;;;;;4.82;0.43;;;14.00;99.90;;;;;;5019336;28;20486;-63
2021/10/15 10:36:33;;;;;;;7.35;0.70;;;14.10;99.90;;;;;;5018679;28;20083;-63
2021/10/15 10:39:21;;;;;;;4.43;0.88;;;14.10;99.90;;;;;;5017997;28;20528;-63
2021/10/15 10:42:09;;;;;;;6.90;0.80;;;14.10;99.90;;;;;;5015999;28;20045;-62
2021/10/15 10:44:35;;;;;;;4.72;0.38;;;14.10;99.90;;;;;;5018796;28;20109;-62
2021/10/15 10:47:17;;;;;;;3.65;0.95;;;14.00;99.90;;;;;;5018461;28;20060;-63
2021/10/15 10:50:06;;;;;;;3.63;0.40;;;13.90;99.90;;;;;;5015713;28;20046;-62
2021/10/15 10:52:32;;;;;;;9.43;1.00;;;14.00;99.90;;;;;;5018489;28;20046;-62
2021/10/15 10:54:58;;;;;;;7.50;0.88;;;14.00;99.90;;;;;;5018263;28;20030;-63
2021/10/15 10:57:31;;;;;;;5.47;0.30;;;14.10;99.90;;;;;;5001688;28;20075;-64
2021/10/15 11:00:19;;;;;;;2.33;0.38;;;14.10;99.90;;;;;;5017146;28;20030;-62
2021/10/15 11:02:53;;;;;;;5.20;0.40;;;14.40;99.90;;;;;;5015963;28;20044;-63
2021/10/15 11:05:33;;;;;;;5.57;0.35;;;14.60;99.90;;;;;;5017260;28;20083;-64
2021/10/15 11:08:24;;;;;;;4.30;0.47;;;14.80;99.90;;;;;;5017765;28;20029;-63
2021/10/15 11:10:50;;;;;;;6.85;0.40;;;14.90;99.90;;;;;;5016086;28;20038;-63
2021/10/15 11:13:31;;;;;;;4.03;0.68;;;14.90;99.90;;;;;;5020174;28;20076;-63
2021/10/15 11:15:57;;;;;;;3.00;0.50;;;14.80;99.90;;;;;;5017633;28;20034;-63
2021/10/15 11:18:24;;;;;;;4.72;0.82;;;14.70;99.90;;;;;;5019163;28;20032;-64
2021/10/15 11:20:49;;;;;;;16.15;1.30;;;14.70;99.90;;;;;;5018845;28;20079;-62
2021/10/15 11:23:15;;;;;;;6.82;0.45;;;14.60;99.90;;;;;;5020262;28;20037;-63
2021/10/15 11:25:47;;;;;;;1.65;0.40;;;14.40;99.90;;;;;;5015734;28;20040;-64
2021/10/15 11:28:18;;;;;;;7.10;1.00;;;14.20;99.90;;;;;;5019742;28;20037;-63
2021/10/15 11:30:49;;;;;;;5.03;0.65;;;14.00;99.90;;;;;;5015513;28;20167;-63
2021/10/15 11:33:17;;;;;;;7.95;0.80;;;14.00;99.90;;;;;;5016588;28;20095;-64
2021/10/15 11:35:45;;;;;;;7.97;1.33;;;14.10;99.90;;;;;;5019271;28;20040;-62
2021/10/15 11:38:13;;;;;;;3.45;0.60;;;14.30;99.90;;;;;;5020438;28;20092;-63
2021/10/15 11:40:53;;;;;;;2.80;0.30;;;14.50;99.90;;;;;;5022879;28;20041;-63
2021/10/15 11:43:24;;;;;;;6.15;1.70;;;14.70;99.90;;;;;;5021125;28;20038;-63
2021/10/15 11:46:18;;;;;;;8.38;0.70;;;14.90;99.90;;;;;;5022084;28;20048;-62
2021/10/15 11:48:46;;;;;;;8.40;1.38;;;15.00;99.90;;;;;;5019223;28;20398;-63
2021/10/15 11:51:14;;;;;;;9.68;1.48;;;14.90;99.90;;;;;;5006194;28;20041;-64
2021/10/15 11:54:03;;;;;;;9.77;1.02;;;14.70;99.90;;;;;;5023714;28;20443;-62
2021/10/15 11:56:31;;;;;;;9.35;1.17;;;14.50;99.90;;;;;;5022187;28;20048;-63
2021/10/15 11:58:59;;;;;;;5.63;1.02;;;14.30;99.90;;;;;;5020796;28;20030;-64
2021/10/15 12:01:29;;;;;;;5.18;0.60;;;14.20;99.90;;;;;;5021713;28;20034;-62
2021/10/15 12:04:00;;;;;;;7.47;0.95;;;14.00;99.90;;;;;;5021232;28;20099;-62
2021/10/15 12:06:35;;;;;;;9.23;1.52;;;13.90;99.90;;;;;;5003969;28;20033;-62
2021/10/15 12:09:10;;;;;;;3.03;0.60;;;13.70;99.90;;;;;;5020180;28;20041;-64
2021/10/15 12:11:39;;;;;;;9.25;0.70;;;13.50;99.90;;;;;;5005720;28;20041;-64
2021/10/15 12:14:14;;;;;;;8.50;0.90;;;13.50;99.90;;;;;;5020687;28;20092;-63
2021/10/15 12:16:56;;;;;;;10.75;1.45;;;13.40;99.90;;;;;;5018932;28;20033;-65
2021/10/15 12:19:21;;;;;;;7.55;0.75;;;13.30;99.90;;;;;;5020722;28;20029;-63
2021/10/15 12:21:58;;;;;;;10.45;1.10;;;13.30;99.90;;;;;;5019552;28;20062;-63
2021/10/15 12:24:43;;;;;;;8.93;0.85;;;13.40;99.90;;;;;;5021213;28;20061;-63
2021/10/15 12:27:20;;;;;;;7.38;0.82;;;13.40;99.90;;;;;;5020954;28;20033;-63
2021/10/15 12:30:07;;;;;;;9.30;1.42;;;13.40;99.90;;;;;;5001217;28;20066;-63
2021/10/15 12:32:34;;;;;;;9.43;1.23;;;13.50;99.90;;;;;;5004960;28;20556;-64
2021/10/15 12:35:02;;;;;;;10.55;1.08;;;13.80;99.90;;;;;;5021508;28;20037;-65
2021/10/15 12:37:28;;;;;;;4.18;0.77;;;14.00;99.90;;;;;;5021066;28;20483;-63
2021/10/15 12:40:33;;;;;;;5.90;1.40;;;14.20;99.90;;;;;;5020733;28;20168;-63
2021/10/15 12:43:28;;;;;;;12.15;1.30;;;14.30;99.90;;;;;;4980524;28;20033;-63
2021/10/15 12:45:56;;;;;;;6.25;0.98;;;14.40;99.90;;;;;;5016960;28;20052;-63
2021/10/15 12:48:26;;;;;;;8.60;0.85;;;14.40;99.90;;;;;;5019863;28;20489;-63
2021/10/15 12:51:18;;;;;;;7.43;1.15;;;14.40;99.90;;;;;;5010855;28;20041;-64
2021/10/15 12:53:50;;;;;;;9.43;0.93;;;14.20;99.90;;;;;;5020126;28;20076;-63
2021/10/15 12:56:21;;;;;;;8.90;0.88;;;14.10;99.90;;;;;;5019400;28;20112;-64
2021/10/15 12:58:51;;;;;;;8.02;1.55;;;14.00;99.90;;;;;;5022566;28;20052;-64
2021/10/15 13:01:28;;;;;;;8.02;1.40;;;14.00;99.90;;;;;;5020949;28;20030;-62
2021/10/15 13:03:55;;;;;;;7.80;1.58;;;14.00;99.90;;;;;;5018730;28;20427;-64